MDF weather

Taylor County Airport
Medford, Wisconsin, United States

Public forecast

Using degrees Fahrenheit for public forecast. Weather courtesy of forecast.io.

Current aviation weather report (METAR) for Taylor County Airport

Retrieved 2020/02/26 18:35 UTC (26 minutes ago):

KMDZ 261835Z AUTO 35009G16KT 10SM -SN BKN033 OVC039 M06/M11 A3014 RMK AO2 T10561113

Closest aviation forecast (TAF) to Taylor County Airport

Closest forecast is Wausau Downtown Airport, 30.6 nm (56.6 km) ESE. Retrieved 2020/02/26 18:42 UTC (19 minutes ago):

TAF KAUW 261740Z 2618/2718 35010G15KT P6SM SCT025 BKN035 TEMPO 2618/2619 BKN025 FM261900 34010G15KT P6SM -SHSN BKN022 FM262300 34008KT P6SM -SHSN SCT024 BKN030 FM270100 33006KT P6SM SCT024 SCT060 FM271600 31009G15KT P6SM SCT060